Time;durP1;ratioP1;P1;durP2;ratioP2;P2;SDS_P1;SDS_P2;PMS_P1;PMS_P2;Temp;Humidity;BMP_temperature;BMP_pressure;BME280_temperature;BME280_humidity;BME280_pressure;Samples;Min_cycle;Max_cycle;Signal;HPM_P1;HPM_P2
2021/12/28 00:01:33;;;;;;;5.20;3.75;;;8.30;99.90;;;9.26;100.00;98617.25;5075533;28;20051;-77
2021/12/28 00:03:59;;;;;;;8.10;3.78;;;8.30;99.90;;;9.23;100.00;98607.72;5075323;28;20029;-77
2021/12/28 00:06:25;;;;;;;4.57;2.88;;;8.30;99.90;;;9.24;100.00;98608.53;5075407;28;20392;-77
2021/12/28 00:08:51;;;;;;;5.13;3.08;;;8.30;99.90;;;9.19;100.00;98612.50;5075189;28;20032;-75
2021/12/28 00:11:25;;;;;;;7.80;3.20;;;8.40;99.90;;;9.26;100.00;98608.91;5076556;28;20431;-76
2021/12/28 00:13:58;;;;;;;6.35;3.38;;;8.40;99.90;;;9.33;100.00;98614.47;5075329;28;20039;-78
2021/12/28 00:16:31;;;;;;;5.82;3.72;;;8.40;99.90;;;9.44;100.00;98609.69;5075905;28;20100;-79
2021/12/28 00:19:00;;;;;;;7.18;3.30;;;8.40;99.90;;;9.41;100.00;98613.28;5076993;28;20055;-78
2021/12/28 00:21:27;;;;;;;6.47;3.00;;;8.50;99.90;;;9.45;100.00;98609.31;5077169;28;20365;-78
2021/12/28 00:23:54;;;;;;;6.38;3.58;;;8.50;99.90;;;9.49;100.00;98601.75;5077571;28;20025;-79
2021/12/28 00:26:22;;;;;;;5.38;3.20;;;8.50;99.90;;;9.41;100.00;98614.06;5076925;28;20021;-77
2021/12/28 00:28:49;;;;;;;6.40;3.50;;;8.50;99.90;;;9.38;100.00;98611.28;5076927;28;20140;-78
2021/12/28 00:31:15;;;;;;;5.18;3.22;;;8.50;99.90;;;9.50;100.00;98600.53;5076846;28;20070;-77
2021/12/28 00:33:44;;;;;;;6.45;3.65;;;8.50;99.90;;;9.43;100.00;98599.75;5075869;28;20050;-77
2021/12/28 00:36:15;;;;;;;8.07;3.33;;;8.50;99.90;;;9.51;100.00;98602.13;5075067;28;20036;-79
2021/12/28 00:38:44;;;;;;;9.73;4.47;;;8.50;99.90;;;9.36;100.00;98597.78;5075079;28;20033;-77
2021/12/28 00:41:20;;;;;;;4.32;2.85;;;8.50;99.90;;;9.45;100.00;98594.56;5075844;28;20519;-79
2021/12/28 00:43:46;;;;;;;4.95;3.42;;;8.50;99.90;;;9.37;100.00;98595.78;5077069;28;20025;-80
2021/12/28 00:46:12;;;;;;;6.75;3.50;;;8.50;99.90;;;9.38;100.00;98594.56;5076379;28;20033;-78
2021/12/28 00:48:39;;;;;;;5.72;3.65;;;8.40;99.90;;;9.40;100.00;98581.84;5075172;28;20194;-78
2021/12/28 00:51:08;;;;;;;6.25;3.20;;;8.40;99.90;;;9.44;100.00;98579.03;5076323;28;20016;-79
2021/12/28 00:53:36;;;;;;;6.85;3.60;;;8.40;99.90;;;9.43;100.00;98583.03;5079186;28;20028;-80
2021/12/28 00:56:04;;;;;;;8.07;3.80;;;8.40;99.90;;;9.36;100.00;98585.81;5078061;28;20028;-79
2021/12/28 00:58:32;;;;;;;5.65;3.45;;;8.40;99.90;;;9.37;100.00;98579.88;5077809;28;20029;-77
2021/12/28 01:00:59;;;;;;;6.38;3.75;;;8.50;99.90;;;9.41;100.00;98566.72;5077627;28;20024;-77
2021/12/28 01:03:27;;;;;;;6.22;3.20;;;8.50;99.90;;;9.52;100.00;98566.69;5078190;28;20028;-76
2021/12/28 01:05:53;;;;;;;7.30;3.60;;;8.50;99.90;;;9.46;100.00;98557.16;5077123;28;20033;-77
2021/12/28 01:08:20;;;;;;;8.70;3.40;;;8.60;99.90;;;9.46;100.00;98559.94;5076481;28;20029;-77
2021/12/28 01:10:52;;;;;;;6.03;3.75;;;8.60;99.90;;;9.37;100.00;98554.00;5076680;28;20110;-77
2021/12/28 01:13:21;;;;;;;8.77;3.42;;;8.50;99.90;;;9.31;100.00;98545.22;5076081;28;20399;-78
2021/12/28 01:15:50;;;;;;;6.25;3.40;;;8.40;99.90;;;9.28;100.00;98550.84;5075568;28;20028;-77
2021/12/28 01:18:17;;;;;;;6.60;3.90;;;8.30;99.90;;;9.19;100.00;98550.41;5075438;28;20071;-77
2021/12/28 01:20:44;;;;;;;7.28;3.83;;;8.30;99.90;;;9.13;100.00;98550.03;5076566;28;20093;-76
2021/12/28 01:23:11;;;;;;;6.53;3.70;;;8.20;99.90;;;9.16;100.00;98545.66;5075130;28;20024;-78
2021/12/28 01:25:39;;;;;;;7.50;3.65;;;8.20;99.90;;;9.07;100.00;98540.50;5074468;28;20029;-77
2021/12/28 01:28:06;;;;;;;8.90;3.42;;;8.20;99.90;;;9.11;100.00;98541.28;5073728;28;20024;-78
2021/12/28 01:30:34;;;;;;;8.73;3.47;;;8.20;99.90;;;9.11;100.00;98534.94;5074333;28;20024;-78
2021/12/28 01:33:03;;;;;;;8.20;3.10;;;8.20;99.90;;;9.05;100.00;98550.44;5075618;28;20028;-80
2021/12/28 01:35:32;;;;;;;7.68;3.35;;;8.10;99.90;;;9.02;100.00;98543.69;5076159;28;20028;-80
2021/12/28 01:38:08;;;;;;;11.60;3.28;;;8.10;99.90;;;9.06;100.00;98543.66;5076147;28;20028;-78
2021/12/28 01:40:41;;;;;;;10.52;3.55;;;8.10;99.90;;;9.05;100.00;98542.09;5076602;28;20029;-77
2021/12/28 01:43:18;;;;;;;7.10;2.80;;;8.10;99.90;;;8.94;100.00;98542.88;5076290;28;20075;-79
2021/12/28 01:45:54;;;;;;;8.93;3.00;;;8.10;99.90;;;8.97;100.00;98532.94;5077751;28;20055;-79
2021/12/28 01:48:25;;;;;;;13.30;3.65;;;8.10;99.90;;;8.94;100.00;98539.31;5077798;28;20522;-77
2021/12/28 01:51:02;;;;;;;8.10;2.97;;;8.10;99.90;;;8.96;100.00;98545.25;5076993;28;20100;-76
2021/12/28 01:53:30;;;;;;;8.07;2.70;;;8.00;99.90;;;8.89;100.00;98540.50;5076319;28;20085;-77
2021/12/28 01:56:04;;;;;;;9.23;3.10;;;8.00;99.90;;;8.87;100.00;98540.09;5075916;28;20028;-77
2021/12/28 01:58:30;;;;;;;6.55;3.30;;;7.90;99.90;;;8.87;100.00;98540.09;5061043;22;20539;-77
2021/12/28 02:00:57;;;;;;;9.43;2.78;;;7.90;99.90;;;8.83;100.00;98552.44;5020753;28;20076;-79
2021/12/28 02:03:26;;;;;;;7.85;3.30;;;7.90;99.90;;;8.84;100.00;98542.88;5031037;28;20049;-77
2021/12/28 02:05:54;;;;;;;10.25;3.95;;;7.90;99.90;;;8.78;100.00;98544.47;5029858;28;20033;-77
2021/12/28 02:08:21;;;;;;;9.45;3.40;;;7.80;99.90;;;8.83;100.00;98542.09;5028016;28;20121;-78
2021/12/28 02:10:53;;;;;;;7.63;2.70;;;7.90;99.90;;;8.80;100.00;98542.88;5020847;28;20378;-79
2021/12/28 02:13:21;;;;;;;12.07;4.05;;;7.80;99.90;;;8.77;100.00;98549.25;5016122;28;20112;-78
2021/12/28 02:15:48;;;;;;;9.65;3.25;;;7.80;99.90;;;8.76;100.00;98539.31;5018354;28;20052;-77
2021/12/28 02:18:21;;;;;;;7.60;3.28;;;7.80;99.90;;;8.65;100.00;98538.50;5018379;28;20461;-76
2021/12/28 02:20:53;;;;;;;7.15;3.30;;;7.80;99.90;;;8.74;100.00;98529.75;5016976;28;20029;-78
2021/12/28 02:23:20;;;;;;;13.90;3.67;;;7.80;99.90;;;8.79;100.00;98530.16;5018528;28;20026;-77
2021/12/28 02:25:55;;;;;;;11.00;3.50;;;7.80;99.90;;;8.77;100.00;98523.38;5029122;28;20097;-78
2021/12/28 02:28:22;;;;;;;9.07;3.28;;;7.80;99.90;;;8.82;100.00;98526.59;5034728;28;20032;-78
2021/12/28 02:30:56;;;;;;;11.05;3.20;;;7.80;99.90;;;8.77;100.00;98523.38;5034807;28;20036;-79
2021/12/28 02:33:25;;;;;;;14.68;3.47;;;7.80;99.90;;;8.83;100.00;98522.59;5037098;28;20034;-78
2021/12/28 02:35:57;;;;;;;12.80;3.85;;;7.80;99.90;;;8.82;100.00;98523.81;5035626;28;20052;-76
2021/12/28 02:38:23;;;;;;;12.75;3.13;;;7.80;99.90;;;8.77;100.00;98518.63;5053350;28;20365;-76
2021/12/28 02:40:49;;;;;;;12.20;3.35;;;7.80;99.90;;;8.84;100.00;98520.63;5058095;28;20030;-77
2021/12/28 02:43:18;;;;;;;13.75;4.00;;;7.80;99.90;;;8.88;100.00;98513.88;5040201;28;20029;-77
2021/12/28 02:46:02;;;;;;;14.93;3.58;;;7.90;99.90;;;8.86;100.00;98504.34;5039843;28;20025;-78
2021/12/28 02:48:28;;;;;;;12.98;3.78;;;7.80;99.90;;;8.85;100.00;98505.50;5043613;28;20010;-78
2021/12/28 02:51:11;;;;;;;14.52;3.50;;;7.80;99.90;;;8.88;100.00;98504.72;5040493;28;20097;-77
2021/12/28 02:53:45;;;;;;;11.95;3.78;;;7.80;99.90;;;8.90;100.00;98502.31;5043803;28;20532;-78
2021/12/28 02:56:16;;;;;;;12.85;3.58;;;7.90;99.90;;;8.89;100.00;98497.97;5040768;28;20044;-79
2021/12/28 02:59:02;;;;;;;13.55;3.10;;;7.90;99.90;;;8.87;100.00;98498.34;5054591;28;20043;-78
2021/12/28 03:01:31;;;;;;;;;;;7.80;99.90;;;8.86;100.00;98499.53;5041363;28;20113;-76
2021/12/28 03:04:04;;;;;;;12.60;3.15;;;7.80;99.90;;;8.83;100.00;98494.00;5044704;28;19917;-76
2021/12/28 03:06:32;;;;;;;18.08;3.72;;;7.80;99.90;;;8.79;100.00;98491.22;5037172;28;20594;-76
2021/12/28 03:09:02;;;;;;;11.05;2.75;;;7.80;99.90;;;8.90;100.00;98483.63;5036571;28;20491;-77
2021/12/28 03:11:30;;;;;;;11.10;3.53;;;7.80;99.90;;;8.88;100.00;98480.47;5036560;28;20109;-76
2021/12/28 03:14:02;;;;;;;12.70;3.22;;;7.80;99.90;;;8.90;100.00;98477.25;5037018;28;20503;-78
2021/12/28 03:16:31;;;;;;;16.73;3.88;;;7.80;99.90;;;8.88;100.00;98476.88;5041608;28;20033;-77
2021/12/28 03:18:58;;;;;;;13.85;2.97;;;7.80;99.90;;;8.90;100.00;98475.28;5057407;28;20097;-77
2021/12/28 03:21:26;;;;;;;11.75;3.13;;;7.80;99.90;;;8.86;100.00;98470.94;5043847;28;20040;-78
2021/12/28 03:23:55;;;;;;;12.32;3.50;;;7.80;99.90;;;8.90;100.00;98477.25;5040026;28;20026;-76
2021/12/28 03:26:22;;;;;;;17.17;3.75;;;7.80;99.90;;;8.89;100.00;98461.78;5024974;28;20033;-78
2021/12/28 03:28:50;;;;;;;21.48;4.00;;;7.90;99.90;;;8.94;100.00;98464.16;5020821;28;20026;-77
2021/12/28 03:31:22;;;;;;;20.40;3.17;;;7.90;99.90;;;8.98;100.00;98457.38;5016545;28;20026;-77
2021/12/28 03:33:53;;;;;;;14.40;3.72;;;8.00;99.90;;;9.06;100.00;98454.56;5031203;28;20037;-78
2021/12/28 03:36:23;;;;;;;18.63;4.68;;;8.10;99.90;;;9.00;100.00;98448.63;5016552;28;20074;-77
2021/12/28 03:38:52;;;;;;;15.77;3.55;;;8.00;99.90;;;9.05;100.00;98451.00;5016038;28;20033;-77
2021/12/28 03:41:22;;;;;;;21.67;3.55;;;8.00;99.90;;;9.08;100.00;98446.63;5015865;28;20030;-79
2021/12/28 03:43:51;;;;;;;21.65;4.18;;;8.00;99.90;;;9.10;100.00;98442.25;5031024;28;20445;-78
2021/12/28 03:46:20;;;;;;;23.23;4.50;;;8.10;99.90;;;9.12;100.00;98442.63;5015736;28;20112;-79
2021/12/28 03:48:47;;;;;;;14.02;4.03;;;8.10;99.90;;;9.18;100.00;98448.59;5016089;28;20129;-77
2021/12/28 03:51:14;;;;;;;13.00;3.42;;;8.10;99.90;;;9.21;100.00;98445.81;5014286;28;20037;-76
2021/12/28 03:53:40;;;;;;;13.98;3.65;;;8.10;99.90;;;9.19;100.00;98439.03;5014312;28;20033;-79
2021/12/28 03:56:10;;;;;;;12.68;2.78;;;8.10;99.90;;;9.21;100.00;98437.44;5015264;28;20040;-77
2021/12/28 03:58:42;;;;;;;18.48;3.63;;;8.10;99.90;;;9.21;100.00;98437.44;5015462;28;20133;-79
2021/12/28 04:01:15;;;;;;;18.58;3.55;;;8.10;99.90;;;9.25;100.00;98435.44;5015908;28;20068;-78
2021/12/28 04:03:41;;;;;;;17.45;4.75;;;8.10;99.90;;;9.24;100.00;98428.28;5030860;28;20374;-76
2021/12/28 04:06:09;;;;;;;15.80;3.75;;;8.20;99.90;;;9.34;100.00;98432.22;5016284;28;20053;-77
2021/12/28 04:08:42;;;;;;;18.70;3.53;;;8.20;99.90;;;9.32;100.00;98423.47;5031267;28;20091;-77
2021/12/28 04:11:15;;;;;;;18.02;4.15;;;8.30;99.90;;;9.29;100.00;98416.72;5015203;28;20022;-77
2021/12/28 04:13:44;;;;;;;17.80;3.45;;;8.40;99.90;;;9.47;100.00;98417.44;5015233;28;20033;-78
2021/12/28 04:16:11;;;;;;;22.67;3.63;;;8.40;99.90;;;9.50;100.00;98415.84;5015821;28;20486;-77
2021/12/28 04:18:41;;;;;;;20.20;4.88;;;8.50;99.90;;;9.61;100.00;98418.56;5013618;28;20030;-77
2021/12/28 04:21:10;;;;;;;26.83;4.00;;;8.50;99.90;;;9.55;100.00;98418.22;5015072;28;20041;-77
2021/12/28 04:23:37;;;;;;;19.40;3.58;;;8.60;99.90;;;9.59;100.00;98416.22;5015699;28;20049;-77
2021/12/28 04:26:05;;;;;;;20.25;3.50;;;8.60;99.90;;;9.59;100.00;98413.41;5031142;28;20036;-78
2021/12/28 04:28:34;;;;;;;15.90;3.20;;;8.60;99.90;;;9.62;100.00;98409.03;5036213;28;20029;-77
2021/12/28 04:31:01;;;;;;;18.20;4.50;;;8.60;99.90;;;9.61;100.00;98401.84;5036093;28;20025;-77
2021/12/28 04:33:27;;;;;;;23.23;4.05;;;8.60;99.90;;;9.61;100.00;98402.66;5034149;28;20025;-78
2021/12/28 04:35:59;;;;;;;13.50;2.95;;;8.60;99.90;;;9.60;100.00;98405.84;5035991;28;20091;-77
2021/12/28 04:38:25;;;;;;;15.27;3.00;;;8.70;99.90;;;9.61;100.00;98399.88;5035850;28;20033;-77
2021/12/28 04:40:54;;;;;;;22.48;3.83;;;8.70;99.90;;;9.64;100.00;98395.47;5034802;28;20063;-77
2021/12/28 04:43:20;;;;;;;19.38;3.90;;;8.70;99.90;;;9.68;100.00;98402.63;5048140;28;20111;-78
2021/12/28 04:45:46;;;;;;;22.58;4.30;;;8.70;99.90;;;9.66;100.00;98396.66;5047068;28;20076;-80
2021/12/28 04:48:12;;;;;;;19.45;2.95;;;8.70;99.90;;;9.70;100.00;98391.84;5051103;28;20026;-79
2021/12/28 04:50:40;;;;;;;17.38;3.33;;;8.60;99.90;;;9.59;100.00;98395.91;5036491;28;20443;-79
2021/12/28 04:53:11;;;;;;;18.10;2.85;;;8.60;99.90;;;9.69;100.00;98392.28;5036412;28;20032;-78
2021/12/28 04:55:49;;;;;;;22.27;3.78;;;8.70;99.90;;;9.66;100.00;98393.88;5036705;28;20029;-78
2021/12/28 04:58:16;;;;;;;20.48;4.18;;;8.70;99.90;;;9.74;100.00;98384.25;5035883;28;20037;-79
2021/12/28 05:00:46;;;;;;;26.13;3.83;;;8.70;99.90;;;9.69;100.00;98387.50;5036820;28;20511;-78
2021/12/28 05:03:15;;;;;;;22.90;4.20;;;8.70;99.90;;;9.71;100.00;98382.28;5035863;28;20029;-79
2021/12/28 05:05:45;;;;;;;16.88;3.55;;;8.70;99.90;;;9.75;100.00;98380.28;5035904;28;20029;-79
2021/12/28 05:08:14;;;;;;;18.75;4.22;;;8.60;99.90;;;9.68;100.00;98379.53;5035536;28;20025;-77
2021/12/28 05:10:42;;;;;;;18.83;4.40;;;8.60;99.90;;;9.68;100.00;98379.53;5051859;28;20112;-77
2021/12/28 05:13:12;;;;;;;19.25;3.50;;;8.60;99.90;;;9.73;100.00;98373.53;5035099;28;20033;-76
2021/12/28 05:15:42;;;;;;;25.60;4.95;;;8.70;99.90;;;9.71;100.00;98375.91;5035649;28;20033;-76
2021/12/28 05:18:08;;;;;;;14.63;3.30;;;8.70;99.90;;;9.74;100.00;98370.31;5035192;28;20036;-77
2021/12/28 05:20:35;;;;;;;22.50;4.13;;;8.70;99.90;;;9.78;100.00;98365.53;5035069;28;20071;-78
2021/12/28 05:23:01;;;;;;;20.85;3.40;;;8.70;99.90;;;9.71;100.00;98375.91;5035075;28;20033;-78
2021/12/28 05:25:32;;;;;;;17.70;3.28;;;8.70;99.90;;;9.71;100.00;98375.91;5040435;28;20493;-78
2021/12/28 05:27:58;;;;;;;17.23;3.58;;;8.70;99.90;;;9.59;100.00;98368.84;5015680;28;20033;-76
2021/12/28 05:30:24;;;;;;;19.27;3.38;;;8.70;99.90;;;9.67;100.00;98361.19;5014702;28;20029;-78
2021/12/28 05:32:50;;;;;;;17.63;3.33;;;8.70;99.90;;;9.64;100.00;98365.59;5015429;28;20021;-78
2021/12/28 05:35:16;;;;;;;19.33;3.70;;;8.70;99.90;;;9.67;100.00;98364.00;5014835;28;20088;-76
2021/12/28 05:37:43;;;;;;;22.08;3.83;;;8.60;99.90;;;9.58;100.00;98370.03;5015214;28;20057;-78
2021/12/28 05:40:13;;;;;;;15.68;3.47;;;8.50;99.90;;;9.57;100.00;98364.88;5014767;28;20030;-78
2021/12/28 05:42:39;;;;;;;14.00;3.30;;;8.50;99.90;;;9.52;100.00;98371.66;5015270;28;20164;-77
2021/12/28 05:45:07;;;;;;;14.25;3.15;;;8.50;99.90;;;9.58;100.00;98360.88;5031144;28;20129;-78
2021/12/28 05:47:34;;;;;;;13.10;3.58;;;8.50;99.90;;;9.55;100.00;98354.13;5049469;28;20169;-76
2021/12/28 05:50:00;;;;;;;14.57;3.10;;;8.50;99.90;;;9.51;100.00;98351.34;5034579;28;20071;-77
2021/12/28 05:52:29;;;;;;;12.18;4.18;;;8.50;99.90;;;9.54;100.00;98347.75;5034848;28;20079;-79
2021/12/28 05:54:55;;;;;;;11.85;3.60;;;8.50;99.90;;;9.59;100.00;98340.16;5034079;28;20409;-77
2021/12/28 05:57:21;;;;;;;15.50;3.90;;;8.60;99.90;;;9.62;100.00;98340.16;5033466;28;20029;-76
2021/12/28 05:59:47;;;;;;;14.65;3.47;;;8.60;99.90;;;9.65;100.00;98339.34;5035926;28;20056;-77
2021/12/28 06:02:13;;;;;;;11.57;3.97;;;8.70;99.90;;;9.63;100.00;98340.94;5035677;28;20033;-75
2021/12/28 06:04:39;;;;;;;14.10;3.50;;;8.70;99.90;;;9.71;100.00;98348.84;5036607;28;20087;-78
2021/12/28 06:07:05;;;;;;;12.88;3.70;;;8.70;99.90;;;9.74;100.00;98336.88;5036485;28;20056;-76
2021/12/28 06:09:31;;;;;;;13.85;3.28;;;8.80;99.90;;;9.71;100.00;98345.25;5034763;28;20477;-78
2021/12/28 06:11:57;;;;;;;10.57;3.20;;;8.80;99.90;;;9.80;100.00;98329.66;5034051;28;20390;-78
2021/12/28 06:14:22;;;;;;;11.32;3.20;;;8.80;99.90;;;9.80;100.00;98326.09;5034678;28;20033;-77
2021/12/28 06:16:48;;;;;;;13.55;3.78;;;8.80;99.90;;;9.74;100.00;98322.16;5034490;28;20461;-79
2021/12/28 06:19:14;;;;;;;10.27;3.35;;;8.80;99.90;;;9.76;100.00;98314.94;5050259;28;20052;-79
2021/12/28 06:21:40;;;;;;;12.15;4.57;;;8.80;99.90;;;9.70;100.00;98315.78;5034971;28;20029;-78
2021/12/28 06:24:07;;;;;;;11.45;3.13;;;8.70;99.90;;;9.70;100.00;98332.53;5034753;28;20043;-79
2021/12/28 06:26:35;;;;;;;10.68;3.55;;;8.70;99.90;;;9.63;100.00;98327.00;5031850;28;20084;-79
2021/12/28 06:29:06;;;;;;;12.55;3.53;;;8.70;99.90;;;9.72;100.00;98321.78;5030529;28;20120;-78
2021/12/28 06:31:33;;;;;;;9.35;3.75;;;8.70;99.90;;;9.66;100.00;98327.00;5015707;28;20056;-78
2021/12/28 06:34:03;;;;;;;8.15;2.80;;;8.70;99.90;;;9.69;100.00;98323.38;5015587;28;20029;-79
2021/12/28 06:36:30;;;;;;;8.00;3.28;;;8.70;99.90;;;9.82;100.00;98324.50;5032090;28;20120;-78
2021/12/28 06:38:57;;;;;;;9.48;2.92;;;8.70;99.90;;;9.81;100.00;98328.47;5022326;28;20045;-77
2021/12/28 06:41:23;;;;;;;11.85;3.65;;;8.80;99.90;;;9.83;100.00;98323.28;5026966;28;20176;-78
2021/12/28 06:43:50;;;;;;;9.23;3.80;;;8.90;99.90;;;10.00;100.00;98325.16;5041822;28;20025;-79
2021/12/28 06:46:22;;;;;;;7.78;2.60;;;8.90;99.90;;;9.90;100.00;98328.00;5015721;28;20034;-78
2021/12/28 06:48:54;;;;;;;10.73;3.00;;;8.90;99.90;;;9.93;100.00;98330.78;5014525;28;20443;-79
2021/12/28 06:51:20;;;;;;;12.20;3.17;;;9.00;99.90;;;9.93;100.00;98330.78;5014607;28;20021;-77
2021/12/28 06:53:46;;;;;;;10.90;3.20;;;9.10;99.90;;;10.07;100.00;98327.88;5014689;28;20041;-78
2021/12/28 06:56:13;;;;;;;10.70;2.83;;;9.10;99.90;;;9.97;100.00;98327.97;5013582;28;20358;-76
2021/12/28 06:58:45;;;;;;;11.05;2.95;;;9.00;99.90;;;9.97;100.00;98323.19;5014473;28;20030;-78
2021/12/28 07:01:11;;;;;;;6.00;2.40;;;9.00;99.90;;;9.86;100.00;98311.31;5014651;28;20038;-80
2021/12/28 07:03:37;;;;;;;6.47;2.38;;;9.00;99.90;;;9.89;100.00;98312.47;5013756;28;20036;-80
2021/12/28 07:06:07;;;;;;;9.38;2.92;;;9.00;99.90;;;9.95;100.00;98314.41;5030932;28;20034;-78
2021/12/28 07:08:35;;;;;;;6.57;2.10;;;9.00;99.90;;;9.96;100.00;98315.22;5032221;28;20018;-78
2021/12/28 07:11:02;;;;;;;10.02;2.47;;;9.00;99.90;;;9.87;100.00;98312.91;5018038;28;20033;-77
2021/12/28 07:13:31;;;;;;;7.80;2.13;;;9.00;99.90;;;9.86;100.00;98305.72;5019430;28;20034;-78
2021/12/28 07:15:57;;;;;;;6.78;2.38;;;8.90;99.90;;;9.82;100.00;98307.78;5037344;28;20037;-76
2021/12/28 07:18:23;;;;;;;9.50;2.45;;;8.90;99.90;;;9.94;100.00;98304.47;5032587;28;20038;-76
2021/12/28 07:20:52;;;;;;;10.38;2.45;;;8.90;99.90;;;9.82;100.00;98309.75;5015996;28;20034;-78
2021/12/28 07:23:19;;;;;;;6.18;1.70;;;9.00;99.90;;;9.93;100.00;98310.47;5017385;28;20465;-79
2021/12/28 07:25:53;;;;;;;6.32;2.13;;;8.90;99.90;;;9.83;100.00;98303.75;5045717;28;20037;-80
2021/12/28 07:28:24;;;;;;;7.32;1.90;;;8.90;99.90;;;9.92;100.00;98312.44;5055420;28;20477;-79
2021/12/28 07:30:53;;;;;;;5.55;1.92;;;8.80;99.90;;;9.85;100.00;98312.53;5039925;28;20477;-78
2021/12/28 07:33:20;;;;;;;7.03;1.75;;;8.80;99.90;;;9.81;100.00;98303.38;5055389;28;20026;-79
2021/12/28 07:35:49;;;;;;;5.15;2.22;;;8.80;99.90;;;9.71;100.00;98312.63;5035358;28;20149;-77
2021/12/28 07:38:15;;;;;;;7.45;2.17;;;8.90;99.90;;;9.72;100.00;98303.06;5039721;28;20103;-78
2021/12/28 07:40:41;;;;;;;5.25;1.95;;;8.90;99.90;;;9.80;100.00;98312.16;5039542;28;20129;-79
2021/12/28 07:43:07;;;;;;;7.22;2.38;;;8.80;99.90;;;9.67;100.00;98303.47;5038190;28;20079;-79
2021/12/28 07:45:33;;;;;;;6.25;1.60;;;8.80;99.90;;;9.76;100.00;98305.81;5038809;28;20068;-79
2021/12/28 07:47:59;;;;;;;6.40;1.63;;;8.80;99.90;;;9.68;100.00;98305.06;5041645;28;20025;-77
2021/12/28 07:50:25;;;;;;;7.78;2.80;;;8.80;99.90;;;9.73;100.00;98315.00;5042421;28;20099;-79
2021/12/28 07:52:55;;;;;;;3.25;1.67;;;8.80;99.90;;;9.71;100.00;98295.09;5041750;28;20029;-79
2021/12/28 07:55:21;;;;;;;6.25;2.58;;;8.70;99.90;;;9.74;100.00;98295.06;5055366;28;20048;-78
2021/12/28 07:57:48;;;;;;;6.10;1.73;;;8.80;99.90;;;9.69;100.00;98292.72;5058350;22;20037;-80
2021/12/28 08:00:20;;;;;;;5.70;1.77;;;8.70;99.90;;;9.71;100.00;98292.31;5057429;28;20025;-79
2021/12/28 08:02:47;;;;;;;9.10;1.60;;;8.80;99.90;;;9.80;100.00;98295.41;5058601;28;20029;-82
2021/12/28 08:05:16;;;;;;;3.70;1.63;;;8.80;99.90;;;9.70;100.00;98299.88;5058588;28;20032;-80
2021/12/28 08:07:43;;;;;;;10.43;2.35;;;8.70;99.90;;;9.82;100.00;98307.78;5057940;28;20025;-78
2021/12/28 08:10:13;;;;;;;3.03;1.52;;;8.80;99.90;;;9.92;100.00;98301.28;5080279;28;20009;-79
2021/12/28 08:12:51;;;;;;;9.20;2.20;;;8.80;99.90;;;10.07;100.00;98302.78;5093742;28;20104;-81
2021/12/28 08:15:19;;;;;;;3.92;1.75;;;9.00;99.90;;;10.27;100.00;98307.81;5078179;28;20060;-79
2021/12/28 08:17:45;;;;;;;5.78;2.00;;;9.10;99.90;;;10.17;100.00;98300.34;5070932;28;20041;-79
2021/12/28 08:20:14;;;;;;;4.78;1.50;;;9.30;99.90;;;10.35;100.00;98289.81;5057964;28;20427;-81
2021/12/28 08:22:41;;;;;;;4.78;1.50;;;9.30;99.90;;;10.17;100.00;98278.81;5058124;28;20032;-80
2021/12/28 08:25:12;;;;;;;4.38;1.35;;;9.20;99.90;;;9.97;100.00;98286.13;5064863;28;20084;-81
2021/12/28 08:27:43;;;;;;;7.75;1.30;;;9.20;99.90;;;9.93;100.00;98291.75;5077225;28;20024;-79
2021/12/28 08:30:13;;;;;;;2.50;1.10;;;9.10;99.90;;;9.98;100.00;98296.91;5077397;28;20025;-80
2021/12/28 08:32:41;;;;;;;10.23;1.70;;;9.00;99.90;;;9.97;100.00;98284.16;5076469;28;20025;-79
2021/12/28 08:35:08;;;;;;;3.35;1.30;;;9.00;99.90;;;10.06;100.00;98284.47;5077301;28;20060;-81
2021/12/28 08:37:34;;;;;;;2.60;1.15;;;9.00;99.90;;;10.05;100.00;98287.66;5076468;28;20039;-81
2021/12/28 08:40:06;;;;;;;4.72;1.10;;;9.10;99.90;;;10.24;100.00;98289.91;5076456;28;20033;-77
2021/12/28 08:42:33;;;;;;;4.90;1.15;;;9.20;99.90;;;10.67;100.00;98295.06;5076925;28;20027;-80
2021/12/28 08:45:04;;;;;;;2.92;1.23;;;9.40;99.90;;;10.89;100.00;98308.34;5076047;28;20027;-81
2021/12/28 08:47:30;;;;;;;6.90;1.70;;;9.70;99.90;;;11.06;100.00;98312.16;5077128;28;20432;-78
2021/12/28 08:49:58;;;;;;;3.17;1.40;;;9.90;99.90;;;10.96;100.00;98313.06;5076978;28;20043;-79
2021/12/28 08:52:30;;;;;;;3.03;1.30;;;9.80;99.90;;;10.94;100.00;98313.50;5092300;28;20368;-79
2021/12/28 08:54:56;;;;;;;4.45;0.93;;;9.70;99.90;;;10.69;100.00;98315.00;5078018;28;20029;-81
2021/12/28 08:57:22;;;;;;;2.22;1.02;;;9.70;99.90;;;10.78;100.00;98324.47;5077772;28;20094;-81
2021/12/28 08:59:48;;;;;;;3.42;1.00;;;9.70;99.90;;;10.81;100.00;98326.41;5076648;28;20043;-80
2021/12/28 09:02:14;;;;;;;4.00;1.30;;;9.70;99.90;;;10.55;100.00;98321.50;5076302;28;20050;-81
2021/12/28 09:04:43;;;;;;;5.03;1.20;;;9.70;99.90;;;10.69;100.00;98310.16;5094412;28;20033;-82
2021/12/28 09:07:19;;;;;;;2.15;0.95;;;9.70;99.90;;;10.61;100.00;98310.66;5076764;28;20056;-84
2021/12/28 09:09:46;;;;;;;2.30;0.98;;;9.80;99.90;;;10.74;100.00;98301.34;5078942;28;20028;-82
2021/12/28 09:12:12;;;;;;;3.88;0.85;;;9.80;99.90;;;10.69;100.00;98301.03;5079876;28;20033;-79
2021/12/28 09:14:39;;;;;;;3.10;0.85;;;9.80;99.90;;;10.79;100.00;98298.09;5078106;28;20088;-77
2021/12/28 09:17:07;;;;;;;0.75;0.50;;;9.80;99.90;;;10.82;100.00;98299.28;5079420;28;20020;-82
2021/12/28 09:19:33;;;;;;;2.70;0.95;;;9.90;99.90;;;10.97;100.00;98292.31;5078728;28;20036;-80
2021/12/28 09:22:00;;;;;;;2.70;0.90;;;9.90;99.90;;;11.17;100.00;98286.88;5078047;28;20028;-84
2021/12/28 09:24:26;;;;;;;1.60;0.68;;;10.00;99.90;;;11.35;100.00;98281.84;5076190;28;20037;-82
2021/12/28 09:26:52;;;;;;;2.92;0.70;;;10.20;99.90;;;11.45;100.00;98281.72;5076378;28;20056;-80
2021/12/28 09:29:18;;;;;;;2.75;1.00;;;10.40;99.90;;;11.76;100.00;98282.47;5076777;28;20035;-79
2021/12/28 09:31:47;;;;;;;3.50;0.82;;;10.70;99.90;;;11.69;100.00;98284.56;5076825;28;20033;-80
2021/12/28 09:34:16;;;;;;;3.08;1.00;;;10.70;99.90;;;11.70;100.00;98275.78;5075974;28;20037;-80
2021/12/28 09:36:42;;;;;;;2.53;0.90;;;10.70;99.90;;;11.88;100.00;98283.91;5075075;28;20394;-80
2021/12/28 09:39:09;;;;;;;1.70;0.77;;;10.80;99.90;;;11.92;100.00;98295.78;5074796;28;20032;-81
2021/12/28 09:41:35;;;;;;;3.58;0.88;;;10.90;99.90;;;11.87;100.00;98299.88;5075317;28;20036;-80
2021/12/28 09:44:01;;;;;;;1.95;0.80;;;10.90;99.90;;;12.01;100.00;98282.84;5075753;28;20093;-79
2021/12/28 09:46:27;;;;;;;2.55;1.10;;;11.00;99.90;;;12.08;99.85;98285.53;5075538;28;20044;-83
2021/12/28 09:48:53;;;;;;;2.50;1.08;;;11.20;99.90;;;11.74;100.00;98279.31;5074075;28;20062;-80
2021/12/28 09:51:19;;;;;;;1.90;0.60;;;11.00;99.90;;;11.52;100.00;98286.41;5075406;28;20025;-79
2021/12/28 09:53:45;;;;;;;2.05;0.95;;;10.80;99.90;;;11.55;100.00;98297.53;5075088;28;20082;-82
2021/12/28 09:56:12;;;;;;;1.05;0.70;;;10.60;99.90;;;11.50;100.00;98288.81;5073705;28;20040;-79
2021/12/28 09:58:41;;;;;;;3.10;0.70;;;10.60;99.90;;;11.66;100.00;98277.78;5075136;28;20090;-80
2021/12/28 10:01:10;;;;;;;2.88;0.80;;;10.70;99.90;;;12.15;100.00;98285.44;5075741;28;20037;-81
2021/12/28 10:03:37;;;;;;;1.05;0.52;;;11.00;99.90;;;12.08;99.66;98277.16;5073822;28;20052;-81
2021/12/28 10:06:22;;;;;;;0.70;0.50;;;11.20;99.90;;;12.27;99.19;98263.63;5074864;28;20029;-81
2021/12/28 10:09:21;;;;;;;4.63;0.70;;;11.30;99.90;;;12.27;98.01;98272.81;5073817;28;20029;-81
2021/12/28 10:11:56;;;;;;;2.05;0.60;;;11.20;99.90;;;12.02;99.26;98253.69;5072662;28;20021;-79
2021/12/28 10:14:27;;;;;;;0.88;0.60;;;11.10;99.90;;;12.14;99.73;98257.84;5073561;28;20070;-82
2021/12/28 10:16:56;;;;;;;2.50;1.15;;;11.00;99.90;;;11.89;100.00;98263.09;5071860;28;20055;-82
2021/12/28 10:19:46;;;;;;;2.35;1.10;;;10.90;99.90;;;11.92;100.00;98256.63;5073993;28;20032;-77
2021/12/28 10:22:39;;;;;;;2.85;0.90;;;10.90;99.90;;;11.88;100.00;98256.69;5073514;28;20044;-80
2021/12/28 10:25:18;;;;;;;1.20;0.60;;;10.90;99.90;;;11.75;100.00;98250.13;5074089;28;20028;-80
2021/12/28 10:27:51;;;;;;;2.67;0.65;;;10.80;99.90;;;11.60;100.00;98243.94;5073861;28;20084;-81